CYDC

Princeton Airport

Town of Princeton, British Columbia, Canada
METAR CYDC 152000Z 17003KT 120V220 25SM SKC 29/M02 A3006 RMK SLP166 DENSITY ALT 4300FT
Observed Flight Rules
Jul-15 @ 20:00 UTC (an hour ago) Visual Flight Rules
Wind Visibility Clouds
170° at 3 knots 25 miles
  • Clear skies
Temperatures Readings
Current 29°C / 84°F
Dewpoint -2°C / 28°F
Humidity 13%
Altimeter 30.06" Hg
Pressure 1016.6 hPa
Elevation 700
METAR CYDC 152000Z 17003KT 120V220 25SM SKC 29/M02 A3006 RMK SLP166 DENSITY ALT 4300FT
Observed Flight Rules
Jul-15 @ 20:00 UTC
(an hour ago)
VFR
Wind Visibility
170° at 3 knots 25 miles
Clouds
  • Clear skies
Temperature Dewpoint
29°C / 84°F -2°C / 28°F
Humidity Altimeter Pressure
13% 30.06" Hg 1016.6 hPa